Time;durP1;ratioP1;P1;durP2;ratioP2;P2;SDS_P1;SDS_P2;PMS_P1;PMS_P2;Temp;Humidity;BMP_temperature;BMP_pressure;BME280_temperature;BME280_humidity;BME280_pressure;Samples;Min_cycle;Max_cycle;Signal;HPM_P1;HPM_P2
2021/10/19 00:00:15;;;;;;;26.10;14.53;;;;;;;4.40;100.00;100407.37;1775796;80;20988;-75
2021/10/19 00:02:42;;;;;;;24.37;12.53;;;;;;;4.36;100.00;100416.13;1773995;80;21011;-75
2021/10/19 00:05:09;;;;;;;23.93;12.57;;;;;;;4.34;100.00;100407.38;1773741;80;21066;-75
2021/10/19 00:07:36;;;;;;;23.63;13.13;;;;;;;4.34;100.00;100410.55;1773763;81;21304;-76
2021/10/19 00:10:04;;;;;;;23.53;13.10;;;;;;;4.33;100.00;100401.64;1773868;81;21015;-76
2021/10/19 00:12:31;;;;;;;24.10;12.47;;;;;;;4.32;100.00;100401.30;1773859;81;20979;-76
2021/10/19 00:14:58;;;;;;;29.83;16.10;;;;;;;4.31;100.00;100400.08;1773744;80;21051;-75
2021/10/19 00:17:25;;;;;;;38.27;18.27;;;;;;;4.29;100.00;100400.69;1773894;80;21054;-75
2021/10/19 00:19:51;;;;;;;33.63;17.60;;;;;;;4.24;100.00;100387.66;1774038;81;21019;-74
2021/10/19 00:22:18;;;;;;;34.00;17.17;;;;;;;4.25;100.00;100398.74;1774027;81;21037;-75
2021/10/19 00:24:45;;;;;;;29.77;16.47;;;;;;;4.24;100.00;100392.17;1773901;81;20999;-75
2021/10/19 00:27:12;;;;;;;29.10;15.87;;;;;;;4.24;100.00;100394.84;1773928;80;20988;-74
2021/10/19 00:29:39;;;;;;;29.10;15.13;;;;;;;4.24;100.00;100389.49;1773642;81;21485;-75
2021/10/19 00:32:06;;;;;;;29.67;15.70;;;;;;;4.23;100.00;100400.66;1773789;81;21026;-76
2021/10/19 00:34:34;;;;;;;26.90;14.67;;;;;;;4.21;100.00;100386.55;1773587;81;21003;-76
2021/10/19 00:37:01;;;;;;;25.37;14.47;;;;;;;4.19;100.00;100392.52;1774094;80;21035;-74
2021/10/19 00:39:28;;;;;;;26.27;14.80;;;;;;;4.15;100.00;100391.91;1766963;81;21007;-74
2021/10/19 00:41:55;;;;;;;25.90;14.37;;;;;;;4.13;100.00;100395.20;1765430;81;21038;-76
2021/10/19 00:44:23;;;;;;;24.37;13.73;;;;;;;4.10;100.00;100389.23;1781424;80;21040;-75
2021/10/19 00:46:50;;;;;;;24.90;14.47;;;;;;;4.08;100.00;100392.53;1783990;80;20979;-74
2021/10/19 00:49:18;;;;;;;26.53;14.53;;;;;;;4.05;100.00;100386.06;1783869;80;21036;-75
2021/10/19 00:51:44;;;;;;;26.57;15.20;;;;;;;4.03;100.00;100386.19;1783625;80;21576;-75
2021/10/19 00:54:11;;;;;;;27.40;15.13;;;;;;;4.01;100.00;100382.78;1783678;80;21052;-75
2021/10/19 00:56:38;;;;;;;26.50;14.30;;;;;;;4.01;100.00;100381.94;1783743;80;21442;-75
2021/10/19 00:59:07;;;;;;;25.50;13.97;;;;;;;4.02;100.00;100384.97;1786964;80;21646;-75
2021/10/19 01:01:34;;;;;;;25.00;13.67;;;;;;;4.02;100.00;100387.17;1762583;81;21093;-75
2021/10/19 01:04:01;;;;;;;26.73;14.80;;;;;;;4.02;100.00;100384.50;1762633;81;21053;-74
2021/10/19 01:06:28;;;;;;;22.93;13.30;;;;;;;4.01;100.00;100387.30;1755342;81;21088;-75
2021/10/19 01:08:55;;;;;;;22.40;12.73;;;;;;;3.99;100.00;100386.07;1765735;81;21065;-75
2021/10/19 01:11:23;;;;;;;23.47;13.43;;;;;;;3.97;100.00;100382.17;1755204;82;21078;-76
2021/10/19 01:13:51;;;;;;;25.67;13.90;;;;;;;3.95;100.00;100381.45;1765614;81;20998;-75
2021/10/19 01:16:18;;;;;;;22.40;12.67;;;;;;;3.91;100.00;100382.67;1755260;82;20990;-75
2021/10/19 01:18:45;;;;;;;25.07;13.53;;;;;;;3.90;100.00;100382.78;1765611;81;21591;-75
2021/10/19 01:21:12;;;;;;;25.10;13.63;;;;;;;3.88;100.00;100380.22;1755171;82;20990;-75
2021/10/19 01:23:39;;;;;;;28.77;13.83;;;;;;;3.91;100.00;100392.50;1765452;81;21109;-74
2021/10/19 01:26:08;;;;;;;24.60;14.33;;;;;;;3.93;100.00;100393.22;1755514;82;21050;-76
2021/10/19 01:28:38;;;;;;;28.27;15.63;;;;;;;3.95;100.00;100384.62;1765763;81;21073;-75
2021/10/19 01:31:06;;;;;;;28.50;15.20;;;;;;;3.95;100.00;100384.12;1754994;82;21061;-76
2021/10/19 01:33:33;;;;;;;23.93;13.17;;;;;;;3.97;100.00;100384.85;1765421;81;21073;-75
2021/10/19 01:36:00;;;;;;;26.67;14.00;;;;;;;4.01;100.00;100388.63;1754953;82;21006;-75
2021/10/19 01:38:28;;;;;;;24.37;14.43;;;;;;;4.03;100.00;100388.86;1766182;81;21029;-75
2021/10/19 01:40:56;;;;;;;25.33;14.00;;;;;;;4.05;100.00;100388.75;1757343;82;21027;-75
2021/10/19 01:43:26;;;;;;;25.10;14.63;;;;;;;4.07;100.00;100392.15;1757281;82;21026;-75
2021/10/19 01:46:02;;;;;;;27.50;15.27;;;;;;;4.09;100.00;100392.87;1757102;82;21041;-75
2021/10/19 01:48:32;;;;;;;29.80;15.87;;;;;;;4.10;100.00;100391.91;1757326;82;21078;-75
2021/10/19 01:50:59;;;;;;;25.60;14.53;;;;;;;4.11;100.00;100389.13;1762835;80;21089;-75
2021/10/19 01:53:26;;;;;;;26.53;15.00;;;;;;;4.13;100.00;100393.86;1791646;80;21018;-74
2021/10/19 01:55:53;;;;;;;26.00;14.13;;;;;;;4.14;100.00;100392.91;1796976;80;21491;-74
2021/10/19 02:00:53;;;;;;;25.40;14.37;;;;;;;4.21;100.00;100397.75;1688284;83;21127;-76
2021/10/19 02:03:20;;;;;;;26.00;15.63;;;;;;;4.24;100.00;100396.19;1683078;85;21104;-76
2021/10/19 02:08:16;;;;;;;31.03;16.50;;;;;;;4.27;100.00;100395.95;1687674;85;21090;-75
2021/10/19 02:10:43;;;;;;;25.33;14.87;;;;;;;4.27;100.00;100397.29;1687947;85;21007;-75
2021/10/19 02:13:10;;;;;;;26.37;15.07;;;;;;;4.28;100.00;100402.49;1687704;85;21030;-76
2021/10/19 02:15:38;;;;;;;27.10;14.57;;;;;;;4.29;100.00;100389.98;1687966;85;21103;-75
2021/10/19 02:18:06;;;;;;;29.07;15.77;;;;;;;4.29;100.00;100398.86;1688030;85;21031;-75
2021/10/19 02:20:33;;;;;;;28.03;15.23;;;;;;;4.31;100.00;100398.23;1687934;85;21075;-74
2021/10/19 02:23:00;;;;;;;27.43;16.17;;;;;;;4.32;100.00;100397.28;1687864;85;21127;-75
2021/10/19 02:25:28;;;;;;;28.87;15.70;;;;;;;4.34;100.00;100411.39;1687881;85;21049;-75
2021/10/19 02:27:56;;;;;;;28.87;14.70;;;;;;;4.33;100.00;100404.32;1687779;85;21135;-74
2021/10/19 02:30:23;;;;;;;25.87;14.23;;;;;;;4.36;100.00;100405.92;1687955;85;21011;-75
2021/10/19 02:32:50;;;;;;;24.87;14.47;;;;;;;4.40;100.00;100405.19;1687885;85;20987;-76
2021/10/19 02:35:18;;;;;;;25.63;15.43;;;;;;;4.42;100.00;100410.77;1688025;85;20979;-74
2021/10/19 02:37:45;;;;;;;26.23;15.33;;;;;;;4.44;100.00;100408.81;1685707;85;21069;-76
2021/10/19 02:40:13;;;;;;;26.20;15.30;;;;;;;4.47;100.00;100419.30;1662095;86;21030;-75
2021/10/19 02:42:40;;;;;;;27.70;15.53;;;;;;;4.48;100.00;100412.97;1662150;86;21083;-75
2021/10/19 02:45:07;;;;;;;28.23;15.47;;;;;;;4.50;100.00;100414.20;1651872;86;21027;-75
2021/10/19 02:47:35;;;;;;;25.17;15.30;;;;;;;4.52;100.00;100411.75;1648514;87;21162;-75
2021/10/19 02:50:04;;;;;;;25.03;15.00;;;;;;;4.55;100.00;100414.19;1649033;87;21058;-75
2021/10/19 02:52:31;;;;;;;30.97;16.33;;;;;;;4.58;100.00;100408.22;1648728;87;21055;-75
2021/10/19 02:54:57;;;;;;;31.23;17.53;;;;;;;4.60;100.00;100407.59;1649190;86;21023;-75
2021/10/19 02:57:25;;;;;;;32.23;18.77;;;;;;;4.60;100.00;100404.92;1653375;86;21406;-75
2021/10/19 02:59:51;;;;;;;28.80;17.47;;;;;;;4.58;100.00;100406.87;1672750;85;21048;-75
2021/10/19 03:02:18;;;;;;;29.87;17.43;;;;;;;4.56;100.00;100405.66;1689420;85;20992;-75
2021/10/19 03:04:45;;;;;;;27.80;16.53;;;;;;;4.56;100.00;100406.99;1666332;85;21040;-75
2021/10/19 03:07:12;;;;;;;25.53;15.83;;;;;;;4.58;100.00;100416.25;1689225;85;21036;-76
2021/10/19 03:09:38;;;;;;;26.43;15.27;;;;;;;4.60;100.00;100407.09;1689641;85;21103;-76
2021/10/19 03:12:05;;;;;;;26.77;15.97;;;;;;;4.62;100.00;100413.21;1720195;83;21049;-75
2021/10/19 03:14:32;;;;;;;33.20;20.00;;;;;;;4.64;100.00;100415.73;1732200;83;20970;-75
2021/10/19 03:16:58;;;;;;;30.67;19.00;;;;;;;4.64;100.00;100424.65;1732294;83;21014;-74
2021/10/19 03:19:25;;;;;;;26.73;17.67;;;;;;;4.64;100.00;100423.77;1738650;82;21014;-74
2021/10/19 03:21:52;;;;;;;29.83;19.00;;;;;;;4.67;100.00;100432.91;1760284;81;21014;-75
2021/10/19 03:24:18;;;;;;;31.17;19.43;;;;;;;4.72;100.00;100433.39;1749863;82;21057;-74
2021/10/19 03:26:45;;;;;;;30.37;18.00;;;;;;;4.76;100.00;100434.84;1760029;81;21060;-75
2021/10/19 03:29:12;;;;;;;28.27;17.47;;;;;;;4.80;100.00;100435.44;1760069;81;21022;-74
2021/10/19 03:31:39;;;;;;;28.80;17.13;;;;;;;4.84;100.00;100430.22;1759724;82;21066;-75
2021/10/19 03:34:06;;;;;;;29.77;17.60;;;;;;;4.86;100.00;100430.45;1760176;82;21054;-75
2021/10/19 03:36:33;;;;;;;28.97;17.57;;;;;;;4.87;100.00;100425.47;1728819;82;21018;-75
2021/10/19 03:39:00;;;;;;;28.27;16.97;;;;;;;4.88;100.00;100428.98;1771832;81;20963;-75
2021/10/19 03:41:26;;;;;;;29.67;17.33;;;;;;;4.89;100.00;100422.17;1768919;81;21039;-76
2021/10/19 03:43:53;;;;;;;29.47;17.50;;;;;;;4.91;100.00;100426.06;1701039;83;21035;-74
2021/10/19 03:46:20;;;;;;;28.87;17.10;;;;;;;4.93;100.00;100428.97;1709448;84;21553;-75
2021/10/19 03:48:47;;;;;;;28.80;17.70;;;;;;;4.93;100.00;100437.01;1708172;84;20999;-75
2021/10/19 03:51:14;;;;;;;26.97;17.10;;;;;;;4.95;100.00;100439.07;1708133;84;21031;-74
2021/10/19 03:53:41;;;;;;;30.47;17.77;;;;;;;4.96;100.00;100447.98;1708455;84;21011;-75
2021/10/19 03:56:07;;;;;;;31.27;18.07;;;;;;;4.99;100.00;100441.50;1708444;84;21035;-75
2021/10/19 03:58:34;;;;;;;31.87;17.80;;;;;;;5.01;100.00;100443.10;1708170;84;21026;-74
2021/10/19 04:01:01;;;;;;;32.90;19.23;;;;;;;5.02;100.00;100440.77;1706800;84;21110;-76
2021/10/19 04:03:28;;;;;;;28.93;17.63;;;;;;;5.05;100.00;100451.75;1705883;83;21038;-73
2021/10/19 04:05:54;;;;;;;29.87;17.57;;;;;;;5.05;100.00;100443.70;1706140;84;21066;-75
2021/10/19 04:08:21;;;;;;;28.87;18.10;;;;;;;5.06;100.00;100448.91;1706220;83;20999;-75
2021/10/19 04:10:49;;;;;;;28.53;17.23;;;;;;;5.07;100.00;100447.11;1705658;83;21572;-74
2021/10/19 04:13:17;;;;;;;29.97;17.87;;;;;;;5.10;100.00;100453.56;1705849;83;21015;-75
2021/10/19 04:15:44;;;;;;;29.53;17.17;;;;;;;5.11;100.00;100459.27;1683935;84;21501;-75
2021/10/19 04:18:12;;;;;;;28.03;16.97;;;;;;;5.12;100.00;100460.48;1713969;84;21019;-76
2021/10/19 04:20:39;;;;;;;27.80;17.73;;;;;;;5.14;100.00;100463.05;1708355;84;21015;-75
2021/10/19 04:23:06;;;;;;;27.93;18.20;;;;;;;5.14;100.00;100461.20;1685711;85;21062;-75
2021/10/19 04:25:35;;;;;;;29.83;18.20;;;;;;;5.16;100.00;100462.92;1708289;84;21075;-75
2021/10/19 04:28:02;;;;;;;33.47;19.30;;;;;;;5.16;100.00;100465.11;1694508;84;21094;-75
2021/10/19 04:30:29;;;;;;;33.50;20.40;;;;;;;5.18;100.00;100457.78;1713755;84;21003;-74
2021/10/19 04:32:55;;;;;;;31.67;20.40;;;;;;;5.19;100.00;100463.52;1708475;84;21011;-76
2021/10/19 04:35:22;;;;;;;34.03;19.50;;;;;;;5.20;100.00;100467.89;1695905;84;21058;-75
2021/10/19 04:37:50;;;;;;;30.13;19.90;;;;;;;5.22;100.00;100473.97;1694091;82;21082;-76
2021/10/19 04:40:17;;;;;;;41.27;22.47;;;;;;;5.24;100.00;100477.41;1693642;84;21043;-76
2021/10/19 04:42:43;;;;;;;31.63;19.50;;;;;;;5.27;100.00;100481.16;1693850;85;21050;-76
2021/10/19 04:45:11;;;;;;;32.83;20.13;;;;;;;5.32;100.00;100491.02;1715971;83;21505;-74
2021/10/19 04:47:39;;;;;;;30.83;19.20;;;;;;;5.39;100.00;100499.41;1721727;83;21031;-76
2021/10/19 04:50:06;;;;;;;33.73;18.97;;;;;;;5.45;100.00;100498.92;1721375;83;21055;-75
2021/10/19 04:52:35;;;;;;;30.10;17.87;;;;;;;5.51;100.00;100512.31;1721731;83;21098;-75
2021/10/19 04:55:02;;;;;;;43.03;26.90;;;;;;;5.58;100.00;100512.16;1721661;83;21018;-75
2021/10/19 04:57:31;;;;;;;39.13;25.17;;;;;;;5.64;100.00;100514.82;1722034;83;21097;-74
2021/10/19 04:59:58;;;;;;;102.30;33.57;;;;;;;5.70;100.00;100516.98;1721909;83;21067;-76
2021/10/19 05:02:25;;;;;;;39.97;20.67;;;;;;;5.76;100.00;100523.69;1723246;83;21118;-80
2021/10/19 05:04:53;;;;;;;33.43;19.63;;;;;;;5.80;100.00;100519.76;1723228;83;21026;-75
2021/10/19 05:07:20;;;;;;;30.17;19.00;;;;;;;5.83;100.00;100535.11;1721562;83;21057;-75
2021/10/19 05:09:46;;;;;;;29.93;17.70;;;;;;;5.83;100.00;100540.98;1711787;83;20967;-76
2021/10/19 05:12:13;;;;;;;26.80;17.80;;;;;;;5.84;100.00;100543.54;1710491;84;21170;-77
2021/10/19 05:14:40;;;;;;;33.87;22.43;;;;;;;5.85;100.00;100538.52;1712797;83;21052;-76
2021/10/19 05:17:09;;;;;;;33.77;22.97;;;;;;;5.87;100.00;100541.08;1712169;84;21485;-78
2021/10/19 05:19:36;;;;;;;31.03;20.70;;;;;;;5.92;100.00;100542.05;1756802;81;21041;-78
2021/10/19 05:22:03;;;;;;;33.77;21.80;;;;;;;5.91;100.00;100546.54;1750056;82;21029;-79
2021/10/19 05:24:31;;;;;;;35.63;21.83;;;;;;;5.91;100.00;100543.86;1751671;82;21025;-79
2021/10/19 05:26:58;;;;;;;30.57;19.77;;;;;;;5.93;100.00;100551.28;1751744;82;21038;-79
2021/10/19 05:29:25;;;;;;;28.97;18.60;;;;;;;5.96;100.00;100561.80;1752197;82;20990;-79
2021/10/19 05:31:52;;;;;;;29.57;18.77;;;;;;;5.97;100.00;100558.66;1757826;81;20992;-79
2021/10/19 05:34:19;;;;;;;30.73;17.53;;;;;;;5.98;100.00;100567.05;1753142;81;20974;-80
2021/10/19 05:36:46;;;;;;;27.93;17.47;;;;;;;5.99;100.00;100567.42;1752429;81;21010;-77
2021/10/19 05:39:15;;;;;;;30.10;17.90;;;;;;;6.01;100.00;100570.83;1758282;81;20980;-77
2021/10/19 05:41:42;;;;;;;30.63;17.93;;;;;;;6.04;100.00;100579.97;1753948;81;21268;-77
2021/10/19 05:44:09;;;;;;;26.17;16.37;;;;;;;6.05;100.00;100586.53;1761659;81;20986;-77
2021/10/19 05:46:36;;;;;;;30.07;16.53;;;;;;;6.07;100.00;100593.99;1761152;81;21001;-76
2021/10/19 05:49:03;;;;;;;29.17;17.60;;;;;;;6.10;100.00;100582.63;1754499;81;21009;-78
2021/10/19 05:51:31;;;;;;;30.03;18.17;;;;;;;6.13;100.00;100593.13;1759635;81;21139;-77
2021/10/19 05:53:59;;;;;;;30.77;17.97;;;;;;;6.13;100.00;100593.13;1763219;81;21042;-78
2021/10/19 05:56:25;;;;;;;29.57;17.73;;;;;;;6.13;100.00;100600.67;1767245;81;20975;-79
2021/10/19 05:58:52;;;;;;;28.37;15.67;;;;;;;6.16;100.00;100599.55;1759149;81;21515;-77
2021/10/19 06:01:19;;;;;;;24.00;15.17;;;;;;;6.18;100.00;100606.52;1756995;81;21009;-77
2021/10/19 06:03:46;;;;;;;25.97;15.70;;;;;;;6.18;100.00;100601.14;1697973;84;21011;-77
2021/10/19 06:06:13;;;;;;;24.83;14.73;;;;;;;6.19;100.00;100607.36;1701102;84;21061;-77
2021/10/19 06:08:40;;;;;;;24.80;14.30;;;;;;;6.20;100.00;100605.05;1718167;84;21179;-75
2021/10/19 06:11:07;;;;;;;23.13;13.63;;;;;;;6.18;100.00;100606.52;1710522;84;21106;-76
2021/10/19 06:13:35;;;;;;;24.80;14.63;;;;;;;6.19;100.00;100614.07;1708299;84;21588;-76
2021/10/19 06:16:02;;;;;;;21.40;11.57;;;;;;;6.20;100.00;100622.00;1708314;84;21015;-75
2021/10/19 06:18:29;;;;;;;23.70;12.50;;;;;;;6.25;100.00;100620.25;1707651;84;21094;-74
2021/10/19 06:20:56;;;;;;;17.73;9.63;;;;;;;6.30;100.00;100622.06;1707623;84;21541;-75
2021/10/19 06:23:23;;;;;;;18.13;9.20;;;;;;;6.33;100.00;100629.87;1737492;83;21063;-75
2021/10/19 06:25:50;;;;;;;14.90;7.33;;;;;;;6.35;100.00;100627.91;1707969;84;21028;-76
2021/10/19 06:28:17;;;;;;;14.47;6.97;;;;;;;6.40;100.00;100633.74;1708154;84;21011;-77
2021/10/19 06:30:44;;;;;;;16.87;8.20;;;;;;;6.43;100.00;100638.87;1707431;84;21035;-74
2021/10/19 06:33:10;;;;;;;20.40;9.83;;;;;;;6.46;100.00;100635.92;1708085;84;21055;-75
2021/10/19 06:35:40;;;;;;;22.57;10.23;;;;;;;6.46;100.00;100642.64;1707701;84;21086;-74
2021/10/19 06:38:06;;;;;;;18.33;9.13;;;;;;;6.45;100.00;100642.27;1724394;83;21059;-75
2021/10/19 06:40:35;;;;;;;17.37;8.63;;;;;;;6.45;100.00;100645.45;1771126;81;21082;-75
2021/10/19 06:43:03;;;;;;;18.57;9.20;;;;;;;6.42;100.00;100643.86;1771277;80;21023;-75
2021/10/19 06:45:34;;;;;;;18.00;8.63;;;;;;;6.38;100.00;100645.61;1685528;83;21554;-76
2021/10/19 06:48:01;;;;;;;14.87;7.50;;;;;;;6.35;100.00;100651.23;1707203;83;20991;-78
2021/10/19 06:50:29;;;;;;;12.03;6.53;;;;;;;6.31;100.00;100651.98;1704275;84;21022;-76
2021/10/19 06:52:55;;;;;;;11.90;7.03;;;;;;;6.25;100.00;100650.67;1710748;84;21040;-72
2021/10/19 06:55:23;;;;;;;13.83;6.90;;;;;;;6.25;100.00;100652.48;1725425;82;21052;-76
2021/10/19 06:57:50;;;;;;;12.13;6.53;;;;;;;6.30;100.00;100654.30;1746214;80;21621;-73
2021/10/19 07:00:17;;;;;;;14.93;8.00;;;;;;;6.36;100.00;100655.64;1732772;81;21064;-77
2021/10/19 07:02:45;;;;;;;16.70;7.87;;;;;;;6.40;100.00;100655.23;1773356;80;21002;-79
2021/10/19 07:05:12;;;;;;;13.63;7.47;;;;;;;6.45;100.00;100662.92;1765010;80;21014;-74
2021/10/19 07:07:41;;;;;;;17.23;7.37;;;;;;;6.48;100.00;100667.17;1768562;80;21062;-77
2021/10/19 07:10:10;;;;;;;12.13;6.63;;;;;;;6.51;100.00;100665.07;1770886;80;21054;-73
2021/10/19 07:12:40;;;;;;;12.07;7.00;;;;;;;6.58;100.00;100668.95;1731375;80;21065;-75
2021/10/19 07:15:08;;;;;;;13.30;7.50;;;;;;;6.69;100.00;100673.91;1735464;82;21057;-75
2021/10/19 07:17:35;;;;;;;15.00;7.10;;;;;;;6.79;100.00;100670.30;1774472;80;21069;-78
2021/10/19 07:20:04;;;;;;;12.13;7.03;;;;;;;6.96;100.00;100662.64;1763433;80;21049;-76
2021/10/19 07:22:31;;;;;;;18.73;8.70;;;;;;;7.09;100.00;100666.45;1767283;80;20998;-81
2021/10/19 07:24:59;;;;;;;14.73;7.90;;;;;;;7.22;100.00;100663.05;1776722;80;21058;-78
2021/10/19 07:27:27;;;;;;;15.70;8.40;;;;;;;7.32;100.00;100661.26;1787699;80;21029;-76
2021/10/19 07:29:54;;;;;;;16.80;9.33;;;;;;;7.38;100.00;100663.42;1789484;79;20966;-75
2021/10/19 07:32:22;;;;;;;16.50;9.60;;;;;;;7.39;100.00;100661.58;1764657;80;20991;-76
2021/10/19 07:34:48;;;;;;;17.53;10.53;;;;;;;7.45;100.00;100659.67;1724056;83;21011;-74
2021/10/19 07:37:15;;;;;;;18.40;10.07;;;;;;;7.49;100.00;100658.91;1723018;83;21065;-73
2021/10/19 07:39:43;;;;;;;16.23;8.80;;;;;;;7.53;100.00;100657.16;1722510;83;20999;-75
2021/10/19 07:42:10;;;;;;;16.40;9.27;;;;;;;7.60;100.00;100661.02;1787741;80;20951;-74
2021/10/19 07:44:37;;;;;;;15.67;8.20;;;;;;;7.64;100.00;100656.71;1780408;80;20998;-73
2021/10/19 07:47:04;;;;;;;24.70;12.83;;;;;;;7.59;100.00;100652.56;1769137;80;21106;-74
2021/10/19 07:49:31;;;;;;;21.00;10.50;;;;;;;7.48;100.00;100659.41;1766008;80;21109;-75
2021/10/19 07:51:58;;;;;;;20.40;9.87;;;;;;;7.48;100.00;100659.91;1779760;79;21015;-74
2021/10/19 07:54:29;;;;;;;15.90;8.30;;;;;;;7.57;100.00;100654.55;1783435;80;21539;-76
2021/10/19 07:56:57;;;;;;;17.83;8.63;;;;;;;7.70;100.00;100657.02;1778387;80;21024;-79
2021/10/19 07:59:24;;;;;;;16.43;8.97;;;;;;;7.83;100.00;100657.27;1757222;82;21025;-76
2021/10/19 08:01:51;;;;;;;18.57;8.70;;;;;;;8.01;100.00;100661.48;1771520;80;20994;-75
2021/10/19 08:04:18;;;;;;;25.13;11.97;;;;;;;8.16;100.00;100649.28;1767780;80;20984;-77
2021/10/19 08:06:45;;;;;;;16.30;7.97;;;;;;;8.49;100.00;100652.09;1763539;80;21110;-74
2021/10/19 08:09:14;;;;;;;16.63;8.57;;;;;;;9.02;100.00;100660.69;1766048;80;20975;-75
2021/10/19 08:11:41;;;;;;;9.07;5.37;;;;;;;9.57;100.00;100657.22;1764141;80;21428;-72
2021/10/19 08:14:08;;;;;;;11.33;6.60;;;;;;;9.98;100.00;100651.78;1765755;80;21428;-72
2021/10/19 08:16:36;;;;;;;13.17;6.60;;;;;;;10.14;100.00;100647.05;1763961;81;21054;-76
2021/10/19 08:19:03;;;;;;;14.10;8.07;;;;;;;10.31;100.00;100641.83;1755178;81;21508;-74
2021/10/19 08:21:31;;;;;;;13.60;6.95;;;;;;;10.56;100.00;100642.41;1748933;80;21013;-76
2021/10/19 08:24:00;;;;;;;14.07;6.72;;;;;;;10.86;100.00;100636.22;1757182;80;21580;-74
2021/10/19 08:26:30;;;;;;;12.30;5.95;;;;;;;11.23;100.00;100638.31;1762502;80;20983;-74
2021/10/19 08:28:59;;;;;;;10.58;5.95;;;;;;;11.30;100.00;100640.20;1768352;81;21050;-74
2021/10/19 08:31:26;;;;;;;13.35;5.90;;;;;;;11.30;100.00;100638.02;1732687;83;21501;-74
2021/10/19 08:33:53;;;;;;;12.37;5.30;;;;;;;11.50;100.00;100638.61;1712581;83;21050;-73
2021/10/19 08:36:20;;;;;;;10.90;6.17;;;;;;;11.76;100.00;100639.91;1755477;81;21011;-72
2021/10/19 08:38:48;;;;;;;11.00;6.55;;;;;;;11.84;100.00;100634.49;1755859;81;20988;-73
2021/10/19 08:41:16;;;;;;;12.37;6.03;;;;;;;11.80;100.00;100637.20;1760260;81;20997;-74
2021/10/19 08:43:44;;;;;;;11.20;6.22;;;;;;;11.75;100.00;100636.84;1758970;81;20986;-73
2021/10/19 08:46:12;;;;;;;13.03;6.90;;;;;;;11.66;100.00;100642.73;1757867;81;20983;-75
2021/10/19 08:48:39;;;;;;;10.80;6.28;;;;;;;11.57;100.00;100647.27;1767516;81;21087;-74
2021/10/19 08:51:07;;;;;;;14.60;5.90;;;;;;;11.60;100.00;100637.98;1756267;81;20995;-72
2021/10/19 08:53:39;;;;;;;9.33;5.40;;;;;;;11.88;100.00;100636.36;1756423;81;21133;-74
2021/10/19 08:56:06;;;;;;;11.55;4.60;;;;;;;12.20;100.00;100632.93;1757577;81;21058;-73
2021/10/19 08:58:33;;;;;;;9.83;4.87;;;;;;;12.45;100.00;100630.25;1754793;80;21015;-74
2021/10/19 09:01:05;;;;;;;10.72;4.62;;;;;;;12.46;100.00;100635.47;1750671;81;21035;-73
2021/10/19 09:03:32;;;;;;;10.95;5.60;;;;;;;12.38;100.00;100630.55;1733022;81;21139;-74
2021/10/19 09:06:00;;;;;;;10.28;5.05;;;;;;;12.33;100.00;100633.78;1769310;79;20978;-72
2021/10/19 09:08:28;;;;;;;7.33;4.70;;;;;;;12.35;100.00;100638.53;1752120;80;21003;-73
2021/10/19 09:10:55;;;;;;;15.95;8.70;;;;;;;12.51;100.00;100635.81;1762566;80;21524;-71
2021/10/19 09:13:22;;;;;;;14.53;7.87;;;;;;;12.86;100.00;100634.30;1769739;80;21044;-72
2021/10/19 09:15:50;;;;;;;8.38;4.70;;;;;;;13.05;100.00;100627.13;1772265;79;20986;-71
2021/10/19 09:18:22;;;;;;;9.80;3.62;;;;;;;13.17;100.00;100628.11;1768054;80;21056;-74
2021/10/19 09:20:53;;;;;;;14.95;3.50;;;;;;;13.32;100.00;100624.22;1757630;80;21524;-74
2021/10/19 09:23:22;;;;;;;7.35;3.80;;;;;;;13.45;100.00;100618.54;1697872;83;21038;-74
2021/10/19 09:25:50;;;;;;;6.15;3.50;;;;;;;13.54;100.00;100617.16;1708373;83;21112;-74
2021/10/19 09:28:35;;;;;;;5.08;3.27;;;;;;;13.72;100.00;100616.38;1701404;83;21006;-73
2021/10/19 09:31:03;;;;;;;6.40;3.42;;;;;;;13.86;100.00;100611.58;1619618;87;21091;-73
2021/10/19 09:33:30;;;;;;;10.55;3.25;;;;;;;13.92;100.00;100619.52;1599058;87;21094;-72
2021/10/19 09:36:02;;;;;;;6.78;3.40;;;;;;;14.01;100.00;100620.33;1634881;86;21027;-74
2021/10/19 09:38:28;;;;;;;12.73;3.70;;;;;;;13.83;100.00;100621.44;1632112;86;21798;-75
2021/10/19 09:40:57;;;;;;;9.93;3.67;;;;;;;13.48;100.00;100625.51;1641387;86;21026;-72
2021/10/19 09:43:27;;;;;;;10.28;4.00;;;;;;;13.15;100.00;100626.92;1641465;86;21093;-72
2021/10/19 09:45:56;;;;;;;10.63;4.17;;;;;;;13.09;100.00;100622.20;1636981;87;21090;-74
2021/10/19 09:50:55;;;;;;;17.37;6.28;;;;;;;13.20;100.00;100616.39;1552539;91;21241;-75
2021/10/19 09:53:24;;;;;;;39.08;7.35;;;;;;;13.41;100.00;100606.34;1551479;91;21062;-72
2021/10/19 09:55:54;;;;;;;8.58;3.20;;;;;;;13.61;100.00;100620.34;1554507;91;21043;-72
2021/10/19 09:58:23;;;;;;;6.67;3.37;;;;;;;13.70;97.07;100624.39;1526768;92;21093;-72
2021/10/19 10:00:51;;;;;;;4.78;2.80;;;;;;;13.46;94.47;100627.56;1526797;93;21032;-74
2021/10/19 10:03:18;;;;;;;6.62;3.22;;;;;;;13.18;94.28;100631.18;1498671;94;21090;-72
2021/10/19 10:05:45;;;;;;;8.08;3.52;;;;;;;13.04;96.40;100630.02;1500816;94;21134;-71
2021/10/19 10:08:21;;;;;;;10.72;4.30;;;;;;;13.10;97.08;100622.03;1525489;91;21066;-71
2021/10/19 10:10:57;;;;;;;11.30;4.83;;;;;;;13.36;97.45;100614.69;1536007;93;21048;-73
2021/10/19 10:13:24;;;;;;;8.80;3.37;;;;;;;13.71;97.98;100617.42;1533884;93;21064;-73
2021/10/19 10:15:51;;;;;;;10.35;3.95;;;;;;;14.01;90.70;100622.52;1528142;93;21059;-75
2021/10/19 10:18:31;;;;;;;13.40;5.92;;;;;;;14.03;87.02;100629.14;1531368;94;21092;-73
2021/10/19 10:20:59;;;;;;;12.73;5.35;;;;;;;13.96;84.31;100626.29;1574922;89;21045;-74
2021/10/19 10:23:28;;;;;;;7.28;3.47;;;;;;;13.96;84.01;100621.37;1638920;87;21043;-73
2021/10/19 10:25:56;;;;;;;13.10;5.25;;;;;;;13.96;82.19;100618.66;1650833;87;21000;-73
2021/10/19 10:28:34;;;;;;;10.25;3.70;;;;;;;13.98;89.89;100626.11;1644247;85;20999;-73
2021/10/19 10:31:07;;;;;;;11.40;4.22;;;;;;;14.26;87.93;100621.52;1652184;85;21027;-73
2021/10/19 10:33:39;;;;;;;7.17;3.20;;;;;;;14.28;77.54;100629.82;1643297;86;21776;-77
2021/10/19 10:36:10;;;;;;;6.70;3.55;;;;;;;13.93;75.39;100634.79;1637062;87;21037;-74
2021/10/19 10:38:41;;;;;;;9.48;3.62;;;;;;;13.54;78.70;100634.82;1650503;85;21006;-73
2021/10/19 10:41:15;;;;;;;14.03;3.92;;;;;;;13.18;82.99;100634.73;1647215;87;21090;-74
2021/10/19 10:43:44;;;;;;;31.37;15.48;;;;;;;13.09;88.90;100626.28;1651079;85;21062;-74
2021/10/19 10:46:19;;;;;;;25.27;11.57;;;;;;;13.21;92.36;100633.52;1646375;85;21129;-74
2021/10/19 10:48:47;;;;;;;19.67;9.88;;;;;;;13.51;92.28;100629.24;1643578;87;21549;-76
2021/10/19 10:51:19;;;;;;;13.58;5.83;;;;;;;13.75;87.19;100630.14;1646448;87;21051;-75
2021/10/19 10:53:46;;;;;;;18.20;8.83;;;;;;;13.85;84.44;100641.66;1648156;85;21460;-75
2021/10/19 10:56:15;;;;;;;11.22;5.55;;;;;;;13.66;76.47;100638.84;1667488;85;21001;-77
2021/10/19 10:58:43;;;;;;;15.90;8.55;;;;;;;13.20;74.98;100644.91;1648946;86;21061;-74
2021/10/19 11:01:31;;;;;;;12.03;7.87;;;;;;;12.79;79.88;100644.98;1687627;80;21039;-75
2021/10/19 11:04:10;;;;;;;13.90;6.15;;;;;;;12.53;87.53;100644.63;1758632;80;21054;-74
2021/10/19 11:06:40;;;;;;;13.98;7.58;;;;;;;12.60;92.31;100644.80;1781919;80;21541;-74
2021/10/19 11:11:44;;;;;;;13.30;4.45;;;;;;;12.95;87.80;100641.92;1709596;83;21034;-74
2021/10/19 11:14:17;;;;;;;6.12;3.42;;;;;;;13.00;87.04;100639.53;1667984;83;21086;-72
2021/10/19 11:16:49;;;;;;;11.38;3.72;;;;;;;12.99;82.93;100635.11;1692600;84;21078;-72
2021/10/19 11:19:19;;;;;;;11.40;3.42;;;;;;;13.09;80.86;100639.85;1706790;84;20998;-72
2021/10/19 11:21:50;;;;;;;6.22;3.20;;;;;;;13.25;74.73;100634.89;1712399;84;20999;-74
2021/10/19 11:24:18;;;;;;;8.80;4.35;;;;;;;13.35;72.82;100629.28;1713123;84;21089;-76